sensor_id;sensor_type;location;lat;lon;timestamp;P1;durP1;ratioP1;P2;durP2;ratioP2
66425;SDS011;53237;46.158;14.604;2023-02-20T00:00:59;27.33;;;21.25;;
66425;SDS011;53237;46.158;14.604;2023-02-20T00:03:25;28.58;;;20.48;;
66425;SDS011;53237;46.158;14.604;2023-02-20T00:05:51;27.67;;;21.33;;
66425;SDS011;53237;46.158;14.604;2023-02-20T00:08:17;27.23;;;20.70;;
66425;SDS011;53237;46.158;14.604;2023-02-20T00:10:43;27.08;;;20.10;;
66425;SDS011;53237;46.158;14.604;2023-02-20T00:13:09;25.95;;;19.67;;
66425;SDS011;53237;46.158;14.604;2023-02-20T00:15:35;26.30;;;19.33;;
66425;SDS011;53237;46.158;14.604;2023-02-20T00:18:01;27.85;;;20.23;;
66425;SDS011;53237;46.158;14.604;2023-02-20T00:20:27;26.77;;;21.02;;
66425;SDS011;53237;46.158;14.604;2023-02-20T00:22:54;28.27;;;20.63;;
66425;SDS011;53237;46.158;14.604;2023-02-20T00:25:21;24.95;;;19.08;;
66425;SDS011;53237;46.158;14.604;2023-02-20T00:27:47;28.52;;;21.20;;
66425;SDS011;53237;46.158;14.604;2023-02-20T00:30:17;26.02;;;20.30;;
66425;SDS011;53237;46.158;14.604;2023-02-20T00:32:44;26.83;;;20.10;;
66425;SDS011;53237;46.158;14.604;2023-02-20T00:35:11;27.13;;;19.52;;
66425;SDS011;53237;46.158;14.604;2023-02-20T00:37:37;25.10;;;19.83;;
66425;SDS011;53237;46.158;14.604;2023-02-20T00:40:04;28.35;;;20.60;;
66425;SDS011;53237;46.158;14.604;2023-02-20T00:42:30;27.45;;;19.95;;
66425;SDS011;53237;46.158;14.604;2023-02-20T00:44:56;26.42;;;19.60;;
66425;SDS011;53237;46.158;14.604;2023-02-20T00:47:22;27.70;;;19.45;;
66425;SDS011;53237;46.158;14.604;2023-02-20T00:49:48;28.13;;;20.13;;
66425;SDS011;53237;46.158;14.604;2023-02-20T00:52:14;24.70;;;18.95;;
66425;SDS011;53237;46.158;14.604;2023-02-20T00:54:40;30.67;;;22.00;;
66425;SDS011;53237;46.158;14.604;2023-02-20T00:57:06;28.38;;;20.25;;
66425;SDS011;53237;46.158;14.604;2023-02-20T00:59:32;26.38;;;19.55;;
66425;SDS011;53237;46.158;14.604;2023-02-20T01:01:58;31.35;;;21.15;;
66425;SDS011;53237;46.158;14.604;2023-02-20T01:04:24;27.02;;;19.63;;
66425;SDS011;53237;46.158;14.604;2023-02-20T01:06:50;26.33;;;20.10;;
66425;SDS011;53237;46.158;14.604;2023-02-20T01:09:16;28.52;;;20.15;;
66425;SDS011;53237;46.158;14.604;2023-02-20T01:11:42;26.15;;;20.08;;
66425;SDS011;53237;46.158;14.604;2023-02-20T01:14:09;26.08;;;20.40;;
66425;SDS011;53237;46.158;14.604;2023-02-20T01:16:35;28.27;;;20.63;;
66425;SDS011;53237;46.158;14.604;2023-02-20T01:19:01;26.73;;;19.63;;
66425;SDS011;53237;46.158;14.604;2023-02-20T01:21:27;28.88;;;20.52;;
66425;SDS011;53237;46.158;14.604;2023-02-20T01:23:53;29.00;;;20.35;;
66425;SDS011;53237;46.158;14.604;2023-02-20T01:26:19;29.30;;;20.77;;
66425;SDS011;53237;46.158;14.604;2023-02-20T01:28:45;28.90;;;21.13;;
66425;SDS011;53237;46.158;14.604;2023-02-20T01:31:13;26.60;;;19.17;;
66425;SDS011;53237;46.158;14.604;2023-02-20T01:33:40;26.90;;;19.63;;
66425;SDS011;53237;46.158;14.604;2023-02-20T01:36:06;28.88;;;19.70;;
66425;SDS011;53237;46.158;14.604;2023-02-20T01:38:32;26.73;;;19.35;;
66425;SDS011;53237;46.158;14.604;2023-02-20T01:40:58;27.25;;;19.13;;
66425;SDS011;53237;46.158;14.604;2023-02-20T01:43:24;25.98;;;18.88;;
66425;SDS011;53237;46.158;14.604;2023-02-20T01:45:51;25.27;;;18.45;;
66425;SDS011;53237;46.158;14.604;2023-02-20T01:48:23;26.08;;;19.02;;
66425;SDS011;53237;46.158;14.604;2023-02-20T01:50:51;26.23;;;18.95;;
66425;SDS011;53237;46.158;14.604;2023-02-20T01:53:19;23.42;;;17.92;;
66425;SDS011;53237;46.158;14.604;2023-02-20T01:55:48;25.23;;;17.85;;
66425;SDS011;53237;46.158;14.604;2023-02-20T01:58:16;24.98;;;17.15;;
66425;SDS011;53237;46.158;14.604;2023-02-20T02:00:43;23.73;;;17.67;;
66425;SDS011;53237;46.158;14.604;2023-02-20T02:03:14;23.05;;;17.70;;
66425;SDS011;53237;46.158;14.604;2023-02-20T02:05:42;22.17;;;16.55;;
66425;SDS011;53237;46.158;14.604;2023-02-20T02:08:09;25.75;;;18.15;;
66425;SDS011;53237;46.158;14.604;2023-02-20T02:10:42;23.45;;;18.15;;
66425;SDS011;53237;46.158;14.604;2023-02-20T02:13:10;23.13;;;16.33;;
66425;SDS011;53237;46.158;14.604;2023-02-20T02:15:36;22.27;;;16.70;;
66425;SDS011;53237;46.158;14.604;2023-02-20T02:20:48;23.95;;;16.85;;
66425;SDS011;53237;46.158;14.604;2023-02-20T02:28:36;21.95;;;16.15;;
66425;SDS011;53237;46.158;14.604;2023-02-20T02:41:30;22.63;;;16.17;;
66425;SDS011;53237;46.158;14.604;2023-02-20T02:44:05;22.83;;;16.63;;
66425;SDS011;53237;46.158;14.604;2023-02-20T02:51:30;24.67;;;16.90;;
66425;SDS011;53237;46.158;14.604;2023-02-20T02:54:07;23.83;;;16.48;;
66425;SDS011;53237;46.158;14.604;2023-02-20T02:56:34;24.08;;;16.92;;
66425;SDS011;53237;46.158;14.604;2023-02-20T02:59:01;23.00;;;17.05;;
66425;SDS011;53237;46.158;14.604;2023-02-20T03:01:27;21.92;;;15.85;;
66425;SDS011;53237;46.158;14.604;2023-02-20T03:03:54;24.13;;;16.33;;
66425;SDS011;53237;46.158;14.604;2023-02-20T03:06:23;24.88;;;16.65;;
66425;SDS011;53237;46.158;14.604;2023-02-20T03:08:58;25.02;;;16.60;;
66425;SDS011;53237;46.158;14.604;2023-02-20T03:11:26;22.77;;;16.60;;
66425;SDS011;53237;46.158;14.604;2023-02-20T03:14:14;22.65;;;16.35;;
66425;SDS011;53237;46.158;14.604;2023-02-20T03:20:07;23.77;;;16.70;;
66425;SDS011;53237;46.158;14.604;2023-02-20T03:22:35;23.15;;;16.15;;
66425;SDS011;53237;46.158;14.604;2023-02-20T03:25:07;23.10;;;16.15;;
66425;SDS011;53237;46.158;14.604;2023-02-20T03:27:39;22.58;;;15.90;;
66425;SDS011;53237;46.158;14.604;2023-02-20T03:30:08;24.15;;;16.65;;
66425;SDS011;53237;46.158;14.604;2023-02-20T03:32:36;22.92;;;15.85;;
66425;SDS011;53237;46.158;14.604;2023-02-20T03:35:22;21.48;;;16.05;;
66425;SDS011;53237;46.158;14.604;2023-02-20T03:38:08;21.70;;;15.00;;
66425;SDS011;53237;46.158;14.604;2023-02-20T03:40:54;23.73;;;16.25;;
66425;SDS011;53237;46.158;14.604;2023-02-20T03:43:41;23.90;;;17.13;;
66425;SDS011;53237;46.158;14.604;2023-02-20T03:46:10;23.00;;;15.65;;
66425;SDS011;53237;46.158;14.604;2023-02-20T03:51:04;20.65;;;15.45;;
66425;SDS011;53237;46.158;14.604;2023-02-20T03:53:31;21.50;;;16.10;;
66425;SDS011;53237;46.158;14.604;2023-02-20T03:55:58;23.13;;;16.27;;
66425;SDS011;53237;46.158;14.604;2023-02-20T03:58:26;20.83;;;15.70;;
66425;SDS011;53237;46.158;14.604;2023-02-20T04:00:52;23.63;;;15.93;;
66425;SDS011;53237;46.158;14.604;2023-02-20T04:03:21;23.65;;;16.50;;
66425;SDS011;53237;46.158;14.604;2023-02-20T04:05:49;24.70;;;16.40;;
66425;SDS011;53237;46.158;14.604;2023-02-20T04:08:21;22.58;;;16.70;;
66425;SDS011;53237;46.158;14.604;2023-02-20T04:10:50;24.67;;;16.63;;
66425;SDS011;53237;46.158;14.604;2023-02-20T04:13:18;21.95;;;16.23;;
66425;SDS011;53237;46.158;14.604;2023-02-20T04:15:44;26.77;;;17.25;;
66425;SDS011;53237;46.158;14.604;2023-02-20T04:18:15;24.77;;;17.77;;
66425;SDS011;53237;46.158;14.604;2023-02-20T04:20:42;22.90;;;16.60;;
66425;SDS011;53237;46.158;14.604;2023-02-20T04:23:15;21.65;;;15.80;;
66425;SDS011;53237;46.158;14.604;2023-02-20T04:25:46;23.83;;;16.23;;
66425;SDS011;53237;46.158;14.604;2023-02-20T04:28:13;23.95;;;16.63;;
66425;SDS011;53237;46.158;14.604;2023-02-20T04:30:39;23.42;;;16.33;;
66425;SDS011;53237;46.158;14.604;2023-02-20T04:33:05;24.15;;;17.15;;
66425;SDS011;53237;46.158;14.604;2023-02-20T04:35:31;23.05;;;16.63;;
66425;SDS011;53237;46.158;14.604;2023-02-20T04:37:57;24.25;;;17.45;;
66425;SDS011;53237;46.158;14.604;2023-02-20T04:40:23;23.50;;;17.40;;
66425;SDS011;53237;46.158;14.604;2023-02-20T04:42:49;24.77;;;17.33;;
66425;SDS011;53237;46.158;14.604;2023-02-20T04:45:15;21.98;;;16.40;;
66425;SDS011;53237;46.158;14.604;2023-02-20T04:47:45;23.63;;;16.58;;
66425;SDS011;53237;46.158;14.604;2023-02-20T04:52:46;25.35;;;16.45;;
66425;SDS011;53237;46.158;14.604;2023-02-20T04:55:12;25.63;;;18.27;;
66425;SDS011;53237;46.158;14.604;2023-02-20T04:57:38;25.73;;;17.08;;
66425;SDS011;53237;46.158;14.604;2023-02-20T05:00:04;26.48;;;17.58;;
66425;SDS011;53237;46.158;14.604;2023-02-20T05:02:32;27.58;;;17.30;;
66425;SDS011;53237;46.158;14.604;2023-02-20T05:04:59;28.17;;;18.15;;
66425;SDS011;53237;46.158;14.604;2023-02-20T05:07:25;26.30;;;17.92;;
66425;SDS011;53237;46.158;14.604;2023-02-20T05:09:51;25.30;;;18.15;;
66425;SDS011;53237;46.158;14.604;2023-02-20T05:12:17;27.45;;;19.10;;
66425;SDS011;53237;46.158;14.604;2023-02-20T05:14:43;25.42;;;18.02;;
66425;SDS011;53237;46.158;14.604;2023-02-20T05:17:09;26.75;;;18.17;;
66425;SDS011;53237;46.158;14.604;2023-02-20T05:19:35;25.48;;;17.58;;
66425;SDS011;53237;46.158;14.604;2023-02-20T05:22:01;24.83;;;17.80;;
66425;SDS011;53237;46.158;14.604;2023-02-20T05:24:47;26.35;;;18.13;;
66425;SDS011;53237;46.158;14.604;2023-02-20T05:27:14;25.27;;;17.63;;
66425;SDS011;53237;46.158;14.604;2023-02-20T05:29:44;27.67;;;18.77;;
66425;SDS011;53237;46.158;14.604;2023-02-20T05:32:10;25.73;;;18.20;;
66425;SDS011;53237;46.158;14.604;2023-02-20T05:34:36;25.00;;;17.60;;
66425;SDS011;53237;46.158;14.604;2023-02-20T05:37:02;28.63;;;18.55;;
66425;SDS011;53237;46.158;14.604;2023-02-20T05:39:28;25.60;;;18.52;;
66425;SDS011;53237;46.158;14.604;2023-02-20T05:41:54;25.52;;;17.58;;
66425;SDS011;53237;46.158;14.604;2023-02-20T05:44:21;26.85;;;18.42;;
66425;SDS011;53237;46.158;14.604;2023-02-20T05:46:47;26.20;;;17.67;;
66425;SDS011;53237;46.158;14.604;2023-02-20T05:49:13;24.73;;;17.30;;
66425;SDS011;53237;46.158;14.604;2023-02-20T05:51:41;26.67;;;17.17;;
66425;SDS011;53237;46.158;14.604;2023-02-20T05:54:07;23.40;;;17.45;;
66425;SDS011;53237;46.158;14.604;2023-02-20T05:56:33;24.30;;;17.00;;
66425;SDS011;53237;46.158;14.604;2023-02-20T05:58:59;24.40;;;17.33;;
66425;SDS011;53237;46.158;14.604;2023-02-20T06:01:27;23.25;;;17.58;;
66425;SDS011;53237;46.158;14.604;2023-02-20T06:03:53;25.02;;;17.48;;
66425;SDS011;53237;46.158;14.604;2023-02-20T06:06:19;27.08;;;19.13;;
66425;SDS011;53237;46.158;14.604;2023-02-20T06:08:46;24.95;;;17.80;;
66425;SDS011;53237;46.158;14.604;2023-02-20T06:11:12;25.33;;;17.85;;
66425;SDS011;53237;46.158;14.604;2023-02-20T06:13:42;30.27;;;19.80;;
66425;SDS011;53237;46.158;14.604;2023-02-20T06:16:09;29.30;;;19.25;;
66425;SDS011;53237;46.158;14.604;2023-02-20T06:18:38;30.25;;;20.42;;
66425;SDS011;53237;46.158;14.604;2023-02-20T06:21:08;30.35;;;20.27;;
66425;SDS011;53237;46.158;14.604;2023-02-20T06:23:37;33.38;;;21.63;;
66425;SDS011;53237;46.158;14.604;2023-02-20T06:26:04;29.13;;;21.05;;
66425;SDS011;53237;46.158;14.604;2023-02-20T06:28:30;30.33;;;21.25;;
66425;SDS011;53237;46.158;14.604;2023-02-20T06:30:56;28.73;;;21.17;;
66425;SDS011;53237;46.158;14.604;2023-02-20T06:33:22;35.75;;;23.17;;
66425;SDS011;53237;46.158;14.604;2023-02-20T06:35:48;34.33;;;21.33;;
66425;SDS011;53237;46.158;14.604;2023-02-20T06:38:14;29.30;;;20.58;;
66425;SDS011;53237;46.158;14.604;2023-02-20T06:40:40;30.00;;;22.40;;
66425;SDS011;53237;46.158;14.604;2023-02-20T06:43:06;34.80;;;22.67;;
66425;SDS011;53237;46.158;14.604;2023-02-20T06:45:32;32.53;;;21.95;;
66425;SDS011;53237;46.158;14.604;2023-02-20T06:47:58;32.30;;;22.75;;
66425;SDS011;53237;46.158;14.604;2023-02-20T06:50:24;35.58;;;23.08;;
66425;SDS011;53237;46.158;14.604;2023-02-20T06:52:50;32.95;;;23.13;;
66425;SDS011;53237;46.158;14.604;2023-02-20T06:55:16;31.60;;;22.30;;
66425;SDS011;53237;46.158;14.604;2023-02-20T06:57:42;33.45;;;22.52;;
66425;SDS011;53237;46.158;14.604;2023-02-20T07:00:08;33.60;;;23.27;;
66425;SDS011;53237;46.158;14.604;2023-02-20T07:02:34;33.35;;;23.15;;
66425;SDS011;53237;46.158;14.604;2023-02-20T07:05:01;31.60;;;22.10;;
66425;SDS011;53237;46.158;14.604;2023-02-20T07:07:27;34.17;;;22.90;;
66425;SDS011;53237;46.158;14.604;2023-02-20T07:09:53;34.05;;;24.08;;
66425;SDS011;53237;46.158;14.604;2023-02-20T07:12:19;35.08;;;25.60;;
66425;SDS011;53237;46.158;14.604;2023-02-20T07:14:45;37.50;;;25.48;;
66425;SDS011;53237;46.158;14.604;2023-02-20T07:17:11;36.42;;;25.48;;
66425;SDS011;53237;46.158;14.604;2023-02-20T07:19:38;36.35;;;25.95;;
66425;SDS011;53237;46.158;14.604;2023-02-20T07:22:04;33.03;;;24.63;;
66425;SDS011;53237;46.158;14.604;2023-02-20T07:24:30;41.72;;;30.70;;
66425;SDS011;53237;46.158;14.604;2023-02-20T07:26:56;50.00;;;31.77;;
66425;SDS011;53237;46.158;14.604;2023-02-20T07:29:22;35.70;;;25.48;;
66425;SDS011;53237;46.158;14.604;2023-02-20T07:31:48;34.75;;;25.33;;
66425;SDS011;53237;46.158;14.604;2023-02-20T07:34:14;37.55;;;26.42;;
66425;SDS011;53237;46.158;14.604;2023-02-20T07:36:40;32.65;;;24.38;;
66425;SDS011;53237;46.158;14.604;2023-02-20T07:39:06;34.47;;;24.55;;
66425;SDS011;53237;46.158;14.604;2023-02-20T07:41:32;33.42;;;25.13;;
66425;SDS011;53237;46.158;14.604;2023-02-20T07:44:01;33.35;;;25.27;;
66425;SDS011;53237;46.158;14.604;2023-02-20T07:46:27;34.08;;;25.30;;
66425;SDS011;53237;46.158;14.604;2023-02-20T07:48:57;31.25;;;24.10;;
66425;SDS011;53237;46.158;14.604;2023-02-20T07:51:23;31.98;;;23.13;;
66425;SDS011;53237;46.158;14.604;2023-02-20T07:53:50;30.13;;;23.65;;
66425;SDS011;53237;46.158;14.604;2023-02-20T07:56:17;32.42;;;24.02;;
66425;SDS011;53237;46.158;14.604;2023-02-20T07:58:43;46.15;;;31.85;;
66425;SDS011;53237;46.158;14.604;2023-02-20T08:01:09;39.55;;;27.90;;
66425;SDS011;53237;46.158;14.604;2023-02-20T08:03:35;43.63;;;29.08;;
66425;SDS011;53237;46.158;14.604;2023-02-20T08:06:01;34.53;;;25.75;;
66425;SDS011;53237;46.158;14.604;2023-02-20T08:08:27;36.22;;;25.48;;
66425;SDS011;53237;46.158;14.604;2023-02-20T08:10:53;35.28;;;25.27;;
66425;SDS011;53237;46.158;14.604;2023-02-20T08:13:19;33.78;;;23.90;;
66425;SDS011;53237;46.158;14.604;2023-02-20T08:15:45;32.47;;;24.88;;
66425;SDS011;53237;46.158;14.604;2023-02-20T08:18:12;41.95;;;30.88;;
66425;SDS011;53237;46.158;14.604;2023-02-20T08:20:38;47.90;;;35.50;;
66425;SDS011;53237;46.158;14.604;2023-02-20T08:23:04;53.38;;;35.95;;
66425;SDS011;53237;46.158;14.604;2023-02-20T08:25:30;42.95;;;30.35;;
66425;SDS011;53237;46.158;14.604;2023-02-20T08:27:56;53.53;;;33.50;;
66425;SDS011;53237;46.158;14.604;2023-02-20T08:30:24;79.07;;;45.72;;
66425;SDS011;53237;46.158;14.604;2023-02-20T08:32:50;72.80;;;39.33;;
66425;SDS011;53237;46.158;14.604;2023-02-20T08:35:17;59.08;;;35.85;;
66425;SDS011;53237;46.158;14.604;2023-02-20T08:37:43;38.28;;;26.40;;
66425;SDS011;53237;46.158;14.604;2023-02-20T08:40:09;92.43;;;43.33;;
66425;SDS011;53237;46.158;14.604;2023-02-20T08:42:35;54.72;;;31.05;;
66425;SDS011;53237;46.158;14.604;2023-02-20T08:45:05;56.63;;;33.92;;
66425;SDS011;53237;46.158;14.604;2023-02-20T08:47:31;47.42;;;28.52;;
66425;SDS011;53237;46.158;14.604;2023-02-20T08:49:57;41.67;;;27.73;;
66425;SDS011;53237;46.158;14.604;2023-02-20T08:52:23;72.03;;;40.80;;
66425;SDS011;53237;46.158;14.604;2023-02-20T08:54:49;53.28;;;33.92;;
66425;SDS011;53237;46.158;14.604;2023-02-20T08:57:16;37.28;;;24.77;;
66425;SDS011;53237;46.158;14.604;2023-02-20T08:59:42;41.42;;;26.58;;
66425;SDS011;53237;46.158;14.604;2023-02-20T09:02:16;40.20;;;27.65;;
66425;SDS011;53237;46.158;14.604;2023-02-20T09:04:43;39.70;;;26.05;;
66425;SDS011;53237;46.158;14.604;2023-02-20T09:07:10;40.58;;;26.48;;
66425;SDS011;53237;46.158;14.604;2023-02-20T09:09:36;39.92;;;27.10;;
66425;SDS011;53237;46.158;14.604;2023-02-20T09:12:02;57.33;;;34.00;;
66425;SDS011;53237;46.158;14.604;2023-02-20T09:14:28;64.10;;;38.20;;
66425;SDS011;53237;46.158;14.604;2023-02-20T09:16:54;45.67;;;29.52;;
66425;SDS011;53237;46.158;14.604;2023-02-20T09:19:20;39.50;;;24.30;;
66425;SDS011;53237;46.158;14.604;2023-02-20T09:21:48;40.15;;;26.23;;
66425;SDS011;53237;46.158;14.604;2023-02-20T09:24:14;66.63;;;37.13;;
66425;SDS011;53237;46.158;14.604;2023-02-20T09:26:40;41.97;;;26.42;;
66425;SDS011;53237;46.158;14.604;2023-02-20T09:29:06;44.25;;;28.88;;
66425;SDS011;53237;46.158;14.604;2023-02-20T09:31:32;47.60;;;30.05;;
66425;SDS011;53237;46.158;14.604;2023-02-20T09:33:58;75.72;;;43.78;;
66425;SDS011;53237;46.158;14.604;2023-02-20T09:36:25;62.05;;;37.40;;
66425;SDS011;53237;46.158;14.604;2023-02-20T09:38:51;77.38;;;43.03;;
66425;SDS011;53237;46.158;14.604;2023-02-20T09:44:14;49.47;;;32.53;;
66425;SDS011;53237;46.158;14.604;2023-02-20T09:46:44;57.35;;;37.92;;
66425;SDS011;53237;46.158;14.604;2023-02-20T09:51:37;50.35;;;33.05;;
66425;SDS011;53237;46.158;14.604;2023-02-20T09:54:09;52.95;;;35.05;;
66425;SDS011;53237;46.158;14.604;2023-02-20T09:59:13;49.47;;;31.35;;
66425;SDS011;53237;46.158;14.604;2023-02-20T10:01:43;48.80;;;32.90;;
66425;SDS011;53237;46.158;14.604;2023-02-20T10:04:14;49.70;;;33.38;;
66425;SDS011;53237;46.158;14.604;2023-02-20T10:06:41;48.92;;;32.40;;
66425;SDS011;53237;46.158;14.604;2023-02-20T10:09:10;61.88;;;38.45;;
66425;SDS011;53237;46.158;14.604;2023-02-20T10:11:43;50.72;;;34.47;;
66425;SDS011;53237;46.158;14.604;2023-02-20T10:26:39;42.88;;;28.65;;
66425;SDS011;53237;46.158;14.604;2023-02-20T10:29:17;51.42;;;35.42;;
66425;SDS011;53237;46.158;14.604;2023-02-20T10:34:11;41.63;;;29.67;;
66425;SDS011;53237;46.158;14.604;2023-02-20T10:36:39;45.50;;;28.58;;
66425;SDS011;53237;46.158;14.604;2023-02-20T10:39:07;41.83;;;28.92;;
66425;SDS011;53237;46.158;14.604;2023-02-20T10:41:39;42.20;;;27.83;;
66425;SDS011;53237;46.158;14.604;2023-02-20T10:46:48;39.60;;;27.23;;
66425;SDS011;53237;46.158;14.604;2023-02-20T10:49:18;38.67;;;27.33;;
66425;SDS011;53237;46.158;14.604;2023-02-20T10:51:46;38.15;;;26.60;;
66425;SDS011;53237;46.158;14.604;2023-02-20T10:54:15;37.08;;;25.65;;
66425;SDS011;53237;46.158;14.604;2023-02-20T10:59:12;34.88;;;24.75;;
66425;SDS011;53237;46.158;14.604;2023-02-20T11:01:42;32.70;;;23.08;;
66425;SDS011;53237;46.158;14.604;2023-02-20T11:04:12;30.42;;;22.80;;
66425;SDS011;53237;46.158;14.604;2023-02-20T11:06:44;32.65;;;23.27;;
66425;SDS011;53237;46.158;14.604;2023-02-20T11:09:11;35.15;;;24.58;;
66425;SDS011;53237;46.158;14.604;2023-02-20T11:11:43;32.10;;;22.88;;
66425;SDS011;53237;46.158;14.604;2023-02-20T11:14:20;33.28;;;22.88;;
66425;SDS011;53237;46.158;14.604;2023-02-20T11:16:56;31.60;;;22.35;;
66425;SDS011;53237;46.158;14.604;2023-02-20T11:19:31;34.58;;;24.33;;
66425;SDS011;53237;46.158;14.604;2023-02-20T11:21:58;31.67;;;22.48;;
66425;SDS011;53237;46.158;14.604;2023-02-20T11:24:32;29.55;;;23.02;;
66425;SDS011;53237;46.158;14.604;2023-02-20T11:27:05;30.75;;;21.92;;
66425;SDS011;53237;46.158;14.604;2023-02-20T11:29:33;30.50;;;23.20;;
66425;SDS011;53237;46.158;14.604;2023-02-20T11:34:44;33.90;;;24.25;;
66425;SDS011;53237;46.158;14.604;2023-02-20T11:37:10;32.33;;;22.85;;
66425;SDS011;53237;46.158;14.604;2023-02-20T11:39:37;30.35;;;22.35;;
66425;SDS011;53237;46.158;14.604;2023-02-20T11:42:05;31.48;;;22.10;;
66425;SDS011;53237;46.158;14.604;2023-02-20T11:44:31;31.83;;;21.95;;
66425;SDS011;53237;46.158;14.604;2023-02-20T11:47:08;29.67;;;22.70;;
66425;SDS011;53237;46.158;14.604;2023-02-20T11:49:34;34.05;;;23.75;;
66425;SDS011;53237;46.158;14.604;2023-02-20T11:54:32;28.02;;;20.13;;
66425;SDS011;53237;46.158;14.604;2023-02-20T11:59:26;23.50;;;18.73;;
66425;SDS011;53237;46.158;14.604;2023-02-20T12:01:53;26.58;;;18.98;;
66425;SDS011;53237;46.158;14.604;2023-02-20T12:04:21;26.63;;;18.83;;
66425;SDS011;53237;46.158;14.604;2023-02-20T12:06:47;25.23;;;18.00;;
66425;SDS011;53237;46.158;14.604;2023-02-20T12:09:14;23.42;;;17.10;;
66425;SDS011;53237;46.158;14.604;2023-02-20T12:11:41;27.67;;;20.77;;
66425;SDS011;53237;46.158;14.604;2023-02-20T12:14:10;20.95;;;15.98;;
66425;SDS011;53237;46.158;14.604;2023-02-20T12:19:32;21.08;;;16.60;;
66425;SDS011;53237;46.158;14.604;2023-02-20T12:22:09;20.48;;;15.95;;
66425;SDS011;53237;46.158;14.604;2023-02-20T12:27:15;23.98;;;18.45;;
66425;SDS011;53237;46.158;14.604;2023-02-20T12:29:56;19.67;;;14.70;;
66425;SDS011;53237;46.158;14.604;2023-02-20T12:44:55;25.92;;;19.25;;
66425;SDS011;53237;46.158;14.604;2023-02-20T12:55:17;23.70;;;18.52;;
66425;SDS011;53237;46.158;14.604;2023-02-20T13:00:40;21.17;;;15.70;;
66425;SDS011;53237;46.158;14.604;2023-02-20T13:05:44;24.88;;;17.15;;
66425;SDS011;53237;46.158;14.604;2023-02-20T13:08:16;21.58;;;16.58;;
66425;SDS011;53237;46.158;14.604;2023-02-20T13:11:03;21.50;;;15.63;;
66425;SDS011;53237;46.158;14.604;2023-02-20T13:16:16;18.02;;;14.07;;
66425;SDS011;53237;46.158;14.604;2023-02-20T13:18:48;24.55;;;16.48;;
66425;SDS011;53237;46.158;14.604;2023-02-20T13:23:42;24.35;;;17.05;;
66425;SDS011;53237;46.158;14.604;2023-02-20T13:28:53;19.38;;;14.65;;
66425;SDS011;53237;46.158;14.604;2023-02-20T13:33:46;21.13;;;14.73;;
66425;SDS011;53237;46.158;14.604;2023-02-20T13:36:35;16.67;;;13.68;;
66425;SDS011;53237;46.158;14.604;2023-02-20T13:39:41;21.58;;;16.10;;
66425;SDS011;53237;46.158;14.604;2023-02-20T13:46:57;21.88;;;16.17;;
66425;SDS011;53237;46.158;14.604;2023-02-20T13:54:52;19.98;;;14.77;;
66425;SDS011;53237;46.158;14.604;2023-02-20T13:57:19;17.50;;;13.90;;
66425;SDS011;53237;46.158;14.604;2023-02-20T13:59:50;17.67;;;13.75;;
66425;SDS011;53237;46.158;14.604;2023-02-20T14:02:20;19.88;;;13.70;;
66425;SDS011;53237;46.158;14.604;2023-02-20T14:05:17;19.77;;;15.27;;
66425;SDS011;53237;46.158;14.604;2023-02-20T14:07:43;18.95;;;12.88;;
66425;SDS011;53237;46.158;14.604;2023-02-20T14:12:38;13.95;;;11.23;;
66425;SDS011;53237;46.158;14.604;2023-02-20T14:15:05;17.83;;;12.88;;
66425;SDS011;53237;46.158;14.604;2023-02-20T14:17:31;17.17;;;13.88;;
66425;SDS011;53237;46.158;14.604;2023-02-20T14:20:00;17.98;;;14.43;;
66425;SDS011;53237;46.158;14.604;2023-02-20T14:30:25;17.70;;;13.75;;
66425;SDS011;53237;46.158;14.604;2023-02-20T14:32:53;16.10;;;13.70;;
66425;SDS011;53237;46.158;14.604;2023-02-20T14:43:24;15.20;;;12.43;;
66425;SDS011;53237;46.158;14.604;2023-02-20T14:46:04;14.98;;;12.88;;
66425;SDS011;53237;46.158;14.604;2023-02-20T14:48:32;20.38;;;14.60;;
66425;SDS011;53237;46.158;14.604;2023-02-20T14:53:41;17.45;;;13.35;;
66425;SDS011;53237;46.158;14.604;2023-02-20T14:58:36;16.67;;;13.45;;
66425;SDS011;53237;46.158;14.604;2023-02-20T15:01:12;16.23;;;13.20;;
66425;SDS011;53237;46.158;14.604;2023-02-20T15:03:38;15.02;;;11.55;;
66425;SDS011;53237;46.158;14.604;2023-02-20T15:06:04;19.23;;;14.30;;
66425;SDS011;53237;46.158;14.604;2023-02-20T15:08:34;16.75;;;13.23;;
66425;SDS011;53237;46.158;14.604;2023-02-20T15:11:06;18.15;;;13.77;;
66425;SDS011;53237;46.158;14.604;2023-02-20T15:13:34;16.80;;;13.80;;
66425;SDS011;53237;46.158;14.604;2023-02-20T15:16:43;17.60;;;13.85;;
66425;SDS011;53237;46.158;14.604;2023-02-20T15:18:50;15.65;;;12.07;;
66425;SDS011;53237;46.158;14.604;2023-02-20T15:32:04;12.40;;;9.75;;
66425;SDS011;53237;46.158;14.604;2023-02-20T15:34:32;15.55;;;10.88;;
66425;SDS011;53237;46.158;14.604;2023-02-20T15:36:59;14.73;;;10.98;;
66425;SDS011;53237;46.158;14.604;2023-02-20T15:39:26;16.90;;;9.82;;
66425;SDS011;53237;46.158;14.604;2023-02-20T15:41:52;15.35;;;10.70;;
66425;SDS011;53237;46.158;14.604;2023-02-20T15:44:18;15.95;;;10.75;;
66425;SDS011;53237;46.158;14.604;2023-02-20T15:46:44;17.00;;;12.63;;
66425;SDS011;53237;46.158;14.604;2023-02-20T15:49:10;15.73;;;11.40;;
66425;SDS011;53237;46.158;14.604;2023-02-20T15:51:38;15.45;;;11.18;;
66425;SDS011;53237;46.158;14.604;2023-02-20T15:54:04;14.63;;;10.95;;
66425;SDS011;53237;46.158;14.604;2023-02-20T15:56:32;16.02;;;12.48;;
66425;SDS011;53237;46.158;14.604;2023-02-20T15:59:03;17.80;;;12.18;;
66425;SDS011;53237;46.158;14.604;2023-02-20T16:01:30;16.90;;;13.48;;
66425;SDS011;53237;46.158;14.604;2023-02-20T16:03:56;15.95;;;12.85;;
66425;SDS011;53237;46.158;14.604;2023-02-20T16:06:22;18.13;;;14.35;;
66425;SDS011;53237;46.158;14.604;2023-02-20T16:08:49;18.33;;;14.27;;
66425;SDS011;53237;46.158;14.604;2023-02-20T16:11:15;14.68;;;12.02;;
66425;SDS011;53237;46.158;14.604;2023-02-20T16:13:42;14.50;;;12.40;;
66425;SDS011;53237;46.158;14.604;2023-02-20T16:16:19;15.02;;;11.95;;
66425;SDS011;53237;46.158;14.604;2023-02-20T16:18:46;16.27;;;11.57;;
66425;SDS011;53237;46.158;14.604;2023-02-20T16:21:14;13.88;;;11.50;;
66425;SDS011;53237;46.158;14.604;2023-02-20T16:23:40;18.15;;;11.48;;
66425;SDS011;53237;46.158;14.604;2023-02-20T16:26:09;13.75;;;10.57;;
66425;SDS011;53237;46.158;14.604;2023-02-20T16:28:35;16.88;;;13.75;;
66425;SDS011;53237;46.158;14.604;2023-02-20T16:31:01;14.57;;;12.70;;
66425;SDS011;53237;46.158;14.604;2023-02-20T16:33:27;18.15;;;14.55;;
66425;SDS011;53237;46.158;14.604;2023-02-20T16:35:53;15.00;;;11.77;;
66425;SDS011;53237;46.158;14.604;2023-02-20T16:38:21;14.90;;;11.75;;
66425;SDS011;53237;46.158;14.604;2023-02-20T16:40:47;14.80;;;11.77;;
66425;SDS011;53237;46.158;14.604;2023-02-20T16:43:18;15.25;;;11.93;;
66425;SDS011;53237;46.158;14.604;2023-02-20T16:45:45;17.20;;;14.45;;
66425;SDS011;53237;46.158;14.604;2023-02-20T16:48:12;18.30;;;15.00;;